sensor_id;sensor_type;location;lat;lon;timestamp;temperature;humidity
20498;DHT22;10407;53.238;10.448;2023-09-19T00:00:51;17.90;99.90
20498;DHT22;10407;53.238;10.448;2023-09-19T00:03:20;17.90;99.90
20498;DHT22;10407;53.238;10.448;2023-09-19T00:05:49;17.80;99.90
20498;DHT22;10407;53.238;10.448;2023-09-19T00:08:17;17.70;99.90
20498;DHT22;10407;53.238;10.448;2023-09-19T00:10:46;17.60;99.90
20498;DHT22;10407;53.238;10.448;2023-09-19T00:13:15;17.60;99.90
20498;DHT22;10407;53.238;10.448;2023-09-19T00:15:45;17.50;99.90
20498;DHT22;10407;53.238;10.448;2023-09-19T00:18:15;17.50;99.90
20498;DHT22;10407;53.238;10.448;2023-09-19T00:20:45;17.60;99.90
20498;DHT22;10407;53.238;10.448;2023-09-19T00:23:14;17.60;99.90
20498;DHT22;10407;53.238;10.448;2023-09-19T00:25:42;17.50;99.90
20498;DHT22;10407;53.238;10.448;2023-09-19T00:28:09;17.50;99.90
20498;DHT22;10407;53.238;10.448;2023-09-19T00:30:37;17.50;99.90
20498;DHT22;10407;53.238;10.448;2023-09-19T00:33:06;17.50;99.90
20498;DHT22;10407;53.238;10.448;2023-09-19T00:35:34;17.50;99.90
20498;DHT22;10407;53.238;10.448;2023-09-19T00:38:03;17.30;99.90
20498;DHT22;10407;53.238;10.448;2023-09-19T00:40:30;17.40;99.90
20498;DHT22;10407;53.238;10.448;2023-09-19T00:42:59;17.30;99.90
20498;DHT22;10407;53.238;10.448;2023-09-19T00:45:27;17.60;99.90
20498;DHT22;10407;53.238;10.448;2023-09-19T00:47:55;17.70;99.90
20498;DHT22;10407;53.238;10.448;2023-09-19T00:50:25;17.50;99.90
20498;DHT22;10407;53.238;10.448;2023-09-19T00:52:55;17.40;99.90
20498;DHT22;10407;53.238;10.448;2023-09-19T00:55:26;17.40;99.90
20498;DHT22;10407;53.238;10.448;2023-09-19T00:57:56;17.50;99.90
20498;DHT22;10407;53.238;10.448;2023-09-19T01:00:25;17.40;99.90
20498;DHT22;10407;53.238;10.448;2023-09-19T01:02:53;17.50;99.90
20498;DHT22;10407;53.238;10.448;2023-09-19T01:05:21;17.60;99.90
20498;DHT22;10407;53.238;10.448;2023-09-19T01:07:50;17.40;99.90
20498;DHT22;10407;53.238;10.448;2023-09-19T01:10:20;17.50;99.90
20498;DHT22;10407;53.238;10.448;2023-09-19T01:13:06;17.60;99.90
20498;DHT22;10407;53.238;10.448;2023-09-19T01:18:19;17.70;99.90
20498;DHT22;10407;53.238;10.448;2023-09-19T01:29:39;17.50;99.90
20498;DHT22;10407;53.238;10.448;2023-09-19T01:32:11;17.70;99.90
20498;DHT22;10407;53.238;10.448;2023-09-19T01:34:56;17.50;99.90
20498;DHT22;10407;53.238;10.448;2023-09-19T01:37:24;17.60;99.90
20498;DHT22;10407;53.238;10.448;2023-09-19T01:39:58;17.60;99.90
20498;DHT22;10407;53.238;10.448;2023-09-19T01:42:49;17.60;99.90
20498;DHT22;10407;53.238;10.448;2023-09-19T01:47:55;17.50;99.90
20498;DHT22;10407;53.238;10.448;2023-09-19T01:50:42;17.70;99.90
20498;DHT22;10407;53.238;10.448;2023-09-19T01:55:59;17.40;99.90
20498;DHT22;10407;53.238;10.448;2023-09-19T02:01:12;17.50;99.90
20498;DHT22;10407;53.238;10.448;2023-09-19T02:03:42;17.50;99.90
20498;DHT22;10407;53.238;10.448;2023-09-19T02:06:15;17.50;99.90
20498;DHT22;10407;53.238;10.448;2023-09-19T02:08:45;17.40;99.90
20498;DHT22;10407;53.238;10.448;2023-09-19T02:11:14;17.50;99.90
20498;DHT22;10407;53.238;10.448;2023-09-19T02:13:41;17.60;99.90
20498;DHT22;10407;53.238;10.448;2023-09-19T02:16:10;17.40;99.90
20498;DHT22;10407;53.238;10.448;2023-09-19T02:18:39;17.40;99.90
20498;DHT22;10407;53.238;10.448;2023-09-19T02:21:06;17.30;99.90
20498;DHT22;10407;53.238;10.448;2023-09-19T02:23:36;17.30;99.90
20498;DHT22;10407;53.238;10.448;2023-09-19T02:26:03;17.30;99.90
20498;DHT22;10407;53.238;10.448;2023-09-19T02:28:31;17.30;99.90
20498;DHT22;10407;53.238;10.448;2023-09-19T02:30:59;17.30;99.90
20498;DHT22;10407;53.238;10.448;2023-09-19T02:33:27;17.40;99.90
20498;DHT22;10407;53.238;10.448;2023-09-19T02:35:57;17.30;99.90
20498;DHT22;10407;53.238;10.448;2023-09-19T02:38:25;17.10;99.90
20498;DHT22;10407;53.238;10.448;2023-09-19T02:40:56;17.20;99.90
20498;DHT22;10407;53.238;10.448;2023-09-19T02:43:23;17.00;99.90
20498;DHT22;10407;53.238;10.448;2023-09-19T02:45:51;17.10;99.90
20498;DHT22;10407;53.238;10.448;2023-09-19T02:48:21;17.30;99.90
20498;DHT22;10407;53.238;10.448;2023-09-19T02:50:52;17.30;99.90
20498;DHT22;10407;53.238;10.448;2023-09-19T02:53:19;17.30;99.90
20498;DHT22;10407;53.238;10.448;2023-09-19T02:55:47;17.40;99.90
20498;DHT22;10407;53.238;10.448;2023-09-19T02:58:15;17.30;99.90
20498;DHT22;10407;53.238;10.448;2023-09-19T03:00:44;17.30;99.90
20498;DHT22;10407;53.238;10.448;2023-09-19T03:03:17;17.40;99.90
20498;DHT22;10407;53.238;10.448;2023-09-19T03:05:45;17.40;99.90
20498;DHT22;10407;53.238;10.448;2023-09-19T03:08:14;17.60;99.90
20498;DHT22;10407;53.238;10.448;2023-09-19T03:10:42;17.30;99.90
20498;DHT22;10407;53.238;10.448;2023-09-19T03:13:09;17.20;99.90
20498;DHT22;10407;53.238;10.448;2023-09-19T03:15:41;17.00;99.90
20498;DHT22;10407;53.238;10.448;2023-09-19T03:18:09;16.90;99.90
20498;DHT22;10407;53.238;10.448;2023-09-19T03:20:37;17.00;99.90
20498;DHT22;10407;53.238;10.448;2023-09-19T03:23:05;17.10;99.90
20498;DHT22;10407;53.238;10.448;2023-09-19T03:25:34;17.10;99.90
20498;DHT22;10407;53.238;10.448;2023-09-19T03:28:06;17.20;99.90
20498;DHT22;10407;53.238;10.448;2023-09-19T03:30:34;17.20;99.90
20498;DHT22;10407;53.238;10.448;2023-09-19T03:33:01;17.10;99.90
20498;DHT22;10407;53.238;10.448;2023-09-19T03:35:30;17.30;99.90
20498;DHT22;10407;53.238;10.448;2023-09-19T03:37:58;17.50;99.90
20498;DHT22;10407;53.238;10.448;2023-09-19T03:40:26;17.40;99.90
20498;DHT22;10407;53.238;10.448;2023-09-19T03:42:53;17.10;99.90
20498;DHT22;10407;53.238;10.448;2023-09-19T03:45:21;17.30;99.90
20498;DHT22;10407;53.238;10.448;2023-09-19T03:47:49;17.10;99.90
20498;DHT22;10407;53.238;10.448;2023-09-19T03:50:16;17.00;99.20
20498;DHT22;10407;53.238;10.448;2023-09-19T03:52:44;16.90;98.70
20498;DHT22;10407;53.238;10.448;2023-09-19T03:55:12;16.70;98.50
20498;DHT22;10407;53.238;10.448;2023-09-19T03:57:40;16.90;99.10
20498;DHT22;10407;53.238;10.448;2023-09-19T04:00:09;17.10;98.40
20498;DHT22;10407;53.238;10.448;2023-09-19T04:02:39;17.10;98.70
20498;DHT22;10407;53.238;10.448;2023-09-19T04:05:07;17.10;98.50
20498;DHT22;10407;53.238;10.448;2023-09-19T04:07:34;17.00;99.20
20498;DHT22;10407;53.238;10.448;2023-09-19T04:10:02;17.00;99.90
20498;DHT22;10407;53.238;10.448;2023-09-19T04:12:30;16.80;99.90
20498;DHT22;10407;53.238;10.448;2023-09-19T04:14:58;16.90;99.90
20498;DHT22;10407;53.238;10.448;2023-09-19T04:17:26;16.90;99.90
20498;DHT22;10407;53.238;10.448;2023-09-19T04:19:53;16.80;99.90
20498;DHT22;10407;53.238;10.448;2023-09-19T04:22:21;17.00;99.90
20498;DHT22;10407;53.238;10.448;2023-09-19T04:24:48;17.10;99.90
20498;DHT22;10407;53.238;10.448;2023-09-19T04:27:16;17.10;99.90
20498;DHT22;10407;53.238;10.448;2023-09-19T04:29:45;17.10;99.90
20498;DHT22;10407;53.238;10.448;2023-09-19T04:32:12;17.30;99.90
20498;DHT22;10407;53.238;10.448;2023-09-19T04:34:40;16.80;99.90
20498;DHT22;10407;53.238;10.448;2023-09-19T04:37:07;16.80;99.90
20498;DHT22;10407;53.238;10.448;2023-09-19T04:39:35;16.90;99.90
20498;DHT22;10407;53.238;10.448;2023-09-19T04:42:02;16.90;99.90
20498;DHT22;10407;53.238;10.448;2023-09-19T04:44:30;16.60;99.90
20498;DHT22;10407;53.238;10.448;2023-09-19T04:46:58;16.60;99.90
20498;DHT22;10407;53.238;10.448;2023-09-19T04:49:26;16.60;99.90
20498;DHT22;10407;53.238;10.448;2023-09-19T04:51:54;16.80;99.90
20498;DHT22;10407;53.238;10.448;2023-09-19T04:54:22;16.90;99.90
20498;DHT22;10407;53.238;10.448;2023-09-19T04:56:50;16.90;99.90
20498;DHT22;10407;53.238;10.448;2023-09-19T04:59:17;16.70;99.90
20498;DHT22;10407;53.238;10.448;2023-09-19T05:01:45;16.80;99.70
20498;DHT22;10407;53.238;10.448;2023-09-19T05:04:13;16.60;99.90
20498;DHT22;10407;53.238;10.448;2023-09-19T05:06:41;16.70;99.90
20498;DHT22;10407;53.238;10.448;2023-09-19T05:09:08;16.90;99.90
20498;DHT22;10407;53.238;10.448;2023-09-19T05:11:36;17.00;99.90
20498;DHT22;10407;53.238;10.448;2023-09-19T05:14:05;17.10;99.90
20498;DHT22;10407;53.238;10.448;2023-09-19T05:16:32;17.00;99.90
20498;DHT22;10407;53.238;10.448;2023-09-19T05:19:00;17.10;99.90
20498;DHT22;10407;53.238;10.448;2023-09-19T05:21:29;16.70;99.90
20498;DHT22;10407;53.238;10.448;2023-09-19T05:23:57;16.60;99.90
20498;DHT22;10407;53.238;10.448;2023-09-19T05:26:25;17.00;99.90
20498;DHT22;10407;53.238;10.448;2023-09-19T05:28:52;16.60;99.90
20498;DHT22;10407;53.238;10.448;2023-09-19T05:31:20;16.80;99.80
20498;DHT22;10407;53.238;10.448;2023-09-19T05:33:47;16.90;99.60
20498;DHT22;10407;53.238;10.448;2023-09-19T05:36:15;17.00;99.90
20498;DHT22;10407;53.238;10.448;2023-09-19T05:38:43;17.00;99.40
20498;DHT22;10407;53.238;10.448;2023-09-19T05:41:11;16.60;99.90
20498;DHT22;10407;53.238;10.448;2023-09-19T05:43:40;16.70;99.90
20498;DHT22;10407;53.238;10.448;2023-09-19T05:46:08;16.80;99.90
20498;DHT22;10407;53.238;10.448;2023-09-19T05:48:35;16.70;99.90
20498;DHT22;10407;53.238;10.448;2023-09-19T05:51:05;16.60;99.90
20498;DHT22;10407;53.238;10.448;2023-09-19T05:53:32;16.70;99.90
20498;DHT22;10407;53.238;10.448;2023-09-19T05:56:00;16.70;99.90
20498;DHT22;10407;53.238;10.448;2023-09-19T05:58:27;16.50;99.90
20498;DHT22;10407;53.238;10.448;2023-09-19T06:00:55;16.70;99.90
20498;DHT22;10407;53.238;10.448;2023-09-19T06:03:24;16.90;99.90
20498;DHT22;10407;53.238;10.448;2023-09-19T06:05:51;17.10;99.90
20498;DHT22;10407;53.238;10.448;2023-09-19T06:08:21;17.30;99.90
20498;DHT22;10407;53.238;10.448;2023-09-19T06:10:48;17.60;99.90
20498;DHT22;10407;53.238;10.448;2023-09-19T06:13:17;17.90;98.10
20498;DHT22;10407;53.238;10.448;2023-09-19T06:15:46;17.80;98.60
20498;DHT22;10407;53.238;10.448;2023-09-19T06:18:14;18.00;97.40
20498;DHT22;10407;53.238;10.448;2023-09-19T06:20:43;17.90;98.40
20498;DHT22;10407;53.238;10.448;2023-09-19T06:23:11;18.60;97.40
20498;DHT22;10407;53.238;10.448;2023-09-19T06:25:38;18.90;95.30
20498;DHT22;10407;53.238;10.448;2023-09-19T06:28:07;18.70;96.40
20498;DHT22;10407;53.238;10.448;2023-09-19T06:30:36;18.80;95.30
20498;DHT22;10407;53.238;10.448;2023-09-19T06:33:05;19.00;94.40
20498;DHT22;10407;53.238;10.448;2023-09-19T06:35:34;18.80;95.00
20498;DHT22;10407;53.238;10.448;2023-09-19T06:38:04;19.10;94.60
20498;DHT22;10407;53.238;10.448;2023-09-19T06:40:36;19.20;94.40
20498;DHT22;10407;53.238;10.448;2023-09-19T06:43:05;19.40;94.30
20498;DHT22;10407;53.238;10.448;2023-09-19T06:45:33;19.30;93.40
20498;DHT22;10407;53.238;10.448;2023-09-19T06:48:00;19.70;93.70
20498;DHT22;10407;53.238;10.448;2023-09-19T06:50:29;19.90;92.30
20498;DHT22;10407;53.238;10.448;2023-09-19T06:52:58;19.60;92.70
20498;DHT22;10407;53.238;10.448;2023-09-19T06:55:27;19.20;93.30
20498;DHT22;10407;53.238;10.448;2023-09-19T06:57:56;19.60;93.00
20498;DHT22;10407;53.238;10.448;2023-09-19T07:00:25;19.70;92.30
20498;DHT22;10407;53.238;10.448;2023-09-19T07:03:02;20.00;92.40
20498;DHT22;10407;53.238;10.448;2023-09-19T07:05:32;19.50;92.00
20498;DHT22;10407;53.238;10.448;2023-09-19T07:08:02;20.10;91.50
20498;DHT22;10407;53.238;10.448;2023-09-19T07:10:31;20.10;91.80
20498;DHT22;10407;53.238;10.448;2023-09-19T07:13:01;20.10;92.40
20498;DHT22;10407;53.238;10.448;2023-09-19T07:15:32;19.50;91.90
20498;DHT22;10407;53.238;10.448;2023-09-19T07:18:00;18.60;93.00
20498;DHT22;10407;53.238;10.448;2023-09-19T07:20:29;19.10;93.50
20498;DHT22;10407;53.238;10.448;2023-09-19T07:22:58;20.00;91.70
20498;DHT22;10407;53.238;10.448;2023-09-19T07:25:31;19.50;91.80
20498;DHT22;10407;53.238;10.448;2023-09-19T07:27:56;19.10;91.50
20498;DHT22;10407;53.238;10.448;2023-09-19T07:30:25;18.90;92.10
20498;DHT22;10407;53.238;10.448;2023-09-19T07:32:53;19.00;92.60
20498;DHT22;10407;53.238;10.448;2023-09-19T07:35:21;19.20;91.80
20498;DHT22;10407;53.238;10.448;2023-09-19T07:37:50;19.10;91.20
20498;DHT22;10407;53.238;10.448;2023-09-19T07:40:19;18.60;91.90
20498;DHT22;10407;53.238;10.448;2023-09-19T07:42:51;18.70;92.60
20498;DHT22;10407;53.238;10.448;2023-09-19T07:45:19;18.80;92.00
20498;DHT22;10407;53.238;10.448;2023-09-19T07:47:47;18.90;91.90
20498;DHT22;10407;53.238;10.448;2023-09-19T07:50:15;19.20;91.40
20498;DHT22;10407;53.238;10.448;2023-09-19T07:52:46;19.70;91.50
20498;DHT22;10407;53.238;10.448;2023-09-19T07:55:14;20.30;90.90
20498;DHT22;10407;53.238;10.448;2023-09-19T07:57:44;19.90;90.60
20498;DHT22;10407;53.238;10.448;2023-09-19T08:00:12;20.00;91.10
20498;DHT22;10407;53.238;10.448;2023-09-19T08:02:41;20.10;89.00
20498;DHT22;10407;53.238;10.448;2023-09-19T08:05:11;20.30;89.40
20498;DHT22;10407;53.238;10.448;2023-09-19T08:07:39;19.60;87.60
20498;DHT22;10407;53.238;10.448;2023-09-19T08:10:08;19.30;88.80
20498;DHT22;10407;53.238;10.448;2023-09-19T08:12:40;18.80;90.60
20498;DHT22;10407;53.238;10.448;2023-09-19T08:15:10;19.30;89.60
20498;DHT22;10407;53.238;10.448;2023-09-19T08:17:37;19.80;89.50
20498;DHT22;10407;53.238;10.448;2023-09-19T08:20:06;20.20;86.30
20498;DHT22;10407;53.238;10.448;2023-09-19T08:22:33;20.50;85.10
20498;DHT22;10407;53.238;10.448;2023-09-19T08:25:01;20.30;83.90
20498;DHT22;10407;53.238;10.448;2023-09-19T08:27:30;20.20;83.50
20498;DHT22;10407;53.238;10.448;2023-09-19T08:29:58;20.00;83.70
20498;DHT22;10407;53.238;10.448;2023-09-19T08:32:25;20.30;85.00
20498;DHT22;10407;53.238;10.448;2023-09-19T08:34:53;20.60;82.70
20498;DHT22;10407;53.238;10.448;2023-09-19T08:37:21;20.50;85.90
20498;DHT22;10407;53.238;10.448;2023-09-19T08:39:48;20.70;83.80
20498;DHT22;10407;53.238;10.448;2023-09-19T08:42:16;20.70;83.40
20498;DHT22;10407;53.238;10.448;2023-09-19T08:44:45;21.10;83.30
20498;DHT22;10407;53.238;10.448;2023-09-19T08:47:16;20.90;82.40
20498;DHT22;10407;53.238;10.448;2023-09-19T08:50:11;20.20;83.40
20498;DHT22;10407;53.238;10.448;2023-09-19T08:52:41;20.20;84.10
20498;DHT22;10407;53.238;10.448;2023-09-19T08:55:11;20.40;83.60
20498;DHT22;10407;53.238;10.448;2023-09-19T08:57:41;20.20;81.70
20498;DHT22;10407;53.238;10.448;2023-09-19T09:00:30;20.30;82.90
20498;DHT22;10407;53.238;10.448;2023-09-19T09:02:58;20.20;82.00
20498;DHT22;10407;53.238;10.448;2023-09-19T09:05:29;20.10;82.60
20498;DHT22;10407;53.238;10.448;2023-09-19T09:07:59;20.40;79.30
20498;DHT22;10407;53.238;10.448;2023-09-19T09:10:27;20.20;80.20
20498;DHT22;10407;53.238;10.448;2023-09-19T09:12:54;20.50;79.40
20498;DHT22;10407;53.238;10.448;2023-09-19T09:15:23;20.60;78.00
20498;DHT22;10407;53.238;10.448;2023-09-19T09:17:52;20.50;77.30
20498;DHT22;10407;53.238;10.448;2023-09-19T09:20:20;20.70;76.50
20498;DHT22;10407;53.238;10.448;2023-09-19T09:22:55;21.20;78.60
20498;DHT22;10407;53.238;10.448;2023-09-19T09:28:11;21.90;78.80
20498;DHT22;10407;53.238;10.448;2023-09-19T09:30:39;21.80;75.30
20498;DHT22;10407;53.238;10.448;2023-09-19T09:33:11;21.60;76.70
20498;DHT22;10407;53.238;10.448;2023-09-19T09:35:56;21.70;74.40
20498;DHT22;10407;53.238;10.448;2023-09-19T09:38:26;21.50;74.40
20498;DHT22;10407;53.238;10.448;2023-09-19T09:40:59;21.40;71.30
20498;DHT22;10407;53.238;10.448;2023-09-19T09:43:36;20.90;74.10
20498;DHT22;10407;53.238;10.448;2023-09-19T09:48:58;20.30;70.50
20498;DHT22;10407;53.238;10.448;2023-09-19T09:51:50;20.70;71.60
20498;DHT22;10407;53.238;10.448;2023-09-19T09:54:29;20.70;70.80
20498;DHT22;10407;53.238;10.448;2023-09-19T09:57:09;20.50;71.30
20498;DHT22;10407;53.238;10.448;2023-09-19T09:59:55;20.60;72.20
20498;DHT22;10407;53.238;10.448;2023-09-19T10:02:29;20.80;71.20
20498;DHT22;10407;53.238;10.448;2023-09-19T10:04:59;20.60;69.80
20498;DHT22;10407;53.238;10.448;2023-09-19T10:07:44;21.00;71.10
20498;DHT22;10407;53.238;10.448;2023-09-19T10:10:36;21.20;70.70
20498;DHT22;10407;53.238;10.448;2023-09-19T10:13:13;20.70;69.00
20498;DHT22;10407;53.238;10.448;2023-09-19T10:15:43;20.60;70.20
20498;DHT22;10407;53.238;10.448;2023-09-19T10:18:14;20.90;71.50
20498;DHT22;10407;53.238;10.448;2023-09-19T10:20:45;20.30;70.10
20498;DHT22;10407;53.238;10.448;2023-09-19T10:23:13;20.40;70.00
20498;DHT22;10407;53.238;10.448;2023-09-19T10:25:42;20.50;70.50
20498;DHT22;10407;53.238;10.448;2023-09-19T10:28:13;20.90;68.40
20498;DHT22;10407;53.238;10.448;2023-09-19T10:30:48;20.80;68.90
20498;DHT22;10407;53.238;10.448;2023-09-19T10:33:14;21.40;71.10
20498;DHT22;10407;53.238;10.448;2023-09-19T10:35:44;21.40;70.60
20498;DHT22;10407;53.238;10.448;2023-09-19T10:38:14;21.40;69.80
20498;DHT22;10407;53.238;10.448;2023-09-19T10:40:41;21.10;70.40
20498;DHT22;10407;53.238;10.448;2023-09-19T10:43:17;20.50;69.40
20498;DHT22;10407;53.238;10.448;2023-09-19T10:45:50;20.90;71.10
20498;DHT22;10407;53.238;10.448;2023-09-19T10:48:20;20.50;69.60
20498;DHT22;10407;53.238;10.448;2023-09-19T10:50:57;20.30;73.80
20498;DHT22;10407;53.238;10.448;2023-09-19T10:53:24;20.60;71.30
20498;DHT22;10407;53.238;10.448;2023-09-19T10:56:00;20.30;70.60
20498;DHT22;10407;53.238;10.448;2023-09-19T10:58:31;20.20;69.10
20498;DHT22;10407;53.238;10.448;2023-09-19T11:01:01;20.50;68.20
20498;DHT22;10407;53.238;10.448;2023-09-19T11:03:30;20.30;70.60
20498;DHT22;10407;53.238;10.448;2023-09-19T11:06:07;20.90;70.20
20498;DHT22;10407;53.238;10.448;2023-09-19T11:08:54;21.00;69.90
20498;DHT22;10407;53.238;10.448;2023-09-19T11:30:40;20.50;65.20
20498;DHT22;10407;53.238;10.448;2023-09-19T11:33:29;20.50;68.80
20498;DHT22;10407;53.238;10.448;2023-09-19T11:36:08;20.10;65.90
20498;DHT22;10407;53.238;10.448;2023-09-19T11:44:31;20.80;68.20
20498;DHT22;10407;53.238;10.448;2023-09-19T11:46:25;20.60;68.30
20498;DHT22;10407;53.238;10.448;2023-09-19T11:48:54;20.90;69.00
20498;DHT22;10407;53.238;10.448;2023-09-19T11:51:24;21.10;69.20
20498;DHT22;10407;53.238;10.448;2023-09-19T11:53:57;21.20;68.60
20498;DHT22;10407;53.238;10.448;2023-09-19T11:56:30;21.30;66.30
20498;DHT22;10407;53.238;10.448;2023-09-19T11:58:58;21.00;67.50
20498;DHT22;10407;53.238;10.448;2023-09-19T12:01:31;21.30;68.10
20498;DHT22;10407;53.238;10.448;2023-09-19T12:04:01;21.40;67.70
20498;DHT22;10407;53.238;10.448;2023-09-19T12:06:31;20.80;67.90
20498;DHT22;10407;53.238;10.448;2023-09-19T12:09:03;21.20;68.00
20498;DHT22;10407;53.238;10.448;2023-09-19T12:11:32;21.00;67.10
20498;DHT22;10407;53.238;10.448;2023-09-19T12:14:02;21.00;66.90
20498;DHT22;10407;53.238;10.448;2023-09-19T12:16:31;20.70;68.70
20498;DHT22;10407;53.238;10.448;2023-09-19T12:19:17;20.80;68.20
20498;DHT22;10407;53.238;10.448;2023-09-19T12:21:31;21.10;67.80
20498;DHT22;10407;53.238;10.448;2023-09-19T12:24:12;20.70;66.80
20498;DHT22;10407;53.238;10.448;2023-09-19T12:26:45;20.70;67.80
20498;DHT22;10407;53.238;10.448;2023-09-19T12:29:15;20.50;67.50
20498;DHT22;10407;53.238;10.448;2023-09-19T12:31:59;20.80;67.60
20498;DHT22;10407;53.238;10.448;2023-09-19T12:34:30;21.10;65.70
20498;DHT22;10407;53.238;10.448;2023-09-19T12:37:10;20.90;67.00
20498;DHT22;10407;53.238;10.448;2023-09-19T12:39:52;21.00;64.70
20498;DHT22;10407;53.238;10.448;2023-09-19T12:42:23;20.60;64.60
20498;DHT22;10407;53.238;10.448;2023-09-19T12:44:53;20.80;67.10
20498;DHT22;10407;53.238;10.448;2023-09-19T12:47:24;21.10;64.40
20498;DHT22;10407;53.238;10.448;2023-09-19T12:52:49;20.90;66.30
20498;DHT22;10407;53.238;10.448;2023-09-19T12:58:01;21.00;67.80
20498;DHT22;10407;53.238;10.448;2023-09-19T13:00:41;21.10;65.70
20498;DHT22;10407;53.238;10.448;2023-09-19T13:03:26;20.70;63.70
20498;DHT22;10407;53.238;10.448;2023-09-19T13:05:58;20.20;63.60
20498;DHT22;10407;53.238;10.448;2023-09-19T13:08:35;20.60;63.20
20498;DHT22;10407;53.238;10.448;2023-09-19T13:11:14;20.70;65.60
20498;DHT22;10407;53.238;10.448;2023-09-19T13:13:46;20.60;63.60
20498;DHT22;10407;53.238;10.448;2023-09-19T13:16:18;20.50;65.30
20498;DHT22;10407;53.238;10.448;2023-09-19T13:18:54;20.50;65.10
20498;DHT22;10407;53.238;10.448;2023-09-19T13:21:32;20.30;66.60
20498;DHT22;10407;53.238;10.448;2023-09-19T13:24:23;20.40;66.00
20498;DHT22;10407;53.238;10.448;2023-09-19T13:26:53;20.30;66.70
20498;DHT22;10407;53.238;10.448;2023-09-19T13:29:20;20.50;65.60
20498;DHT22;10407;53.238;10.448;2023-09-19T13:31:52;20.70;64.80
20498;DHT22;10407;53.238;10.448;2023-09-19T13:34:20;20.20;65.00
20498;DHT22;10407;53.238;10.448;2023-09-19T13:36:48;20.20;65.30
20498;DHT22;10407;53.238;10.448;2023-09-19T13:39:16;20.40;65.00
20498;DHT22;10407;53.238;10.448;2023-09-19T13:41:48;20.60;66.80
20498;DHT22;10407;53.238;10.448;2023-09-19T13:44:16;20.90;65.00
20498;DHT22;10407;53.238;10.448;2023-09-19T13:46:44;21.20;62.90
20498;DHT22;10407;53.238;10.448;2023-09-19T13:49:14;20.80;65.20
20498;DHT22;10407;53.238;10.448;2023-09-19T13:51:43;20.60;66.00
20498;DHT22;10407;53.238;10.448;2023-09-19T13:54:11;20.70;65.40
20498;DHT22;10407;53.238;10.448;2023-09-19T13:56:38;20.60;64.50
20498;DHT22;10407;53.238;10.448;2023-09-19T13:59:06;20.40;62.80
20498;DHT22;10407;53.238;10.448;2023-09-19T14:01:33;20.50;63.40
20498;DHT22;10407;53.238;10.448;2023-09-19T14:04:01;20.40;63.60
20498;DHT22;10407;53.238;10.448;2023-09-19T14:06:28;20.50;64.70
20498;DHT22;10407;53.238;10.448;2023-09-19T14:08:56;20.30;64.10
20498;DHT22;10407;53.238;10.448;2023-09-19T14:11:23;20.30;64.10
20498;DHT22;10407;53.238;10.448;2023-09-19T14:13:52;20.50;65.50
20498;DHT22;10407;53.238;10.448;2023-09-19T14:16:20;20.50;64.20
20498;DHT22;10407;53.238;10.448;2023-09-19T14:18:48;20.50;64.40
20498;DHT22;10407;53.238;10.448;2023-09-19T14:21:16;20.30;62.90
20498;DHT22;10407;53.238;10.448;2023-09-19T14:23:45;20.00;64.00
20498;DHT22;10407;53.238;10.448;2023-09-19T14:26:13;20.50;64.30
20498;DHT22;10407;53.238;10.448;2023-09-19T14:28:40;20.60;64.40
20498;DHT22;10407;53.238;10.448;2023-09-19T14:31:09;20.50;65.10
20498;DHT22;10407;53.238;10.448;2023-09-19T14:33:37;20.20;64.80
20498;DHT22;10407;53.238;10.448;2023-09-19T14:36:06;20.20;65.90
20498;DHT22;10407;53.238;10.448;2023-09-19T14:38:36;20.10;65.20
20498;DHT22;10407;53.238;10.448;2023-09-19T14:41:05;20.10;65.00
20498;DHT22;10407;53.238;10.448;2023-09-19T14:43:33;20.00;68.40
20498;DHT22;10407;53.238;10.448;2023-09-19T14:46:05;19.80;66.10
20498;DHT22;10407;53.238;10.448;2023-09-19T14:48:37;19.80;66.50
20498;DHT22;10407;53.238;10.448;2023-09-19T14:51:08;19.90;67.30
20498;DHT22;10407;53.238;10.448;2023-09-19T14:53:36;20.10;66.40
20498;DHT22;10407;53.238;10.448;2023-09-19T14:56:08;20.00;67.80
20498;DHT22;10407;53.238;10.448;2023-09-19T14:58:36;19.70;67.30
20498;DHT22;10407;53.238;10.448;2023-09-19T15:01:07;19.60;67.50
20498;DHT22;10407;53.238;10.448;2023-09-19T15:03:37;19.70;67.70
20498;DHT22;10407;53.238;10.448;2023-09-19T15:06:11;19.80;68.40
20498;DHT22;10407;53.238;10.448;2023-09-19T15:08:41;19.60;68.50
20498;DHT22;10407;53.238;10.448;2023-09-19T15:11:11;19.60;68.60
20498;DHT22;10407;53.238;10.448;2023-09-19T15:13:39;19.90;69.40
20498;DHT22;10407;53.238;10.448;2023-09-19T15:16:08;19.80;69.30
20498;DHT22;10407;53.238;10.448;2023-09-19T15:18:41;19.90;69.80
20498;DHT22;10407;53.238;10.448;2023-09-19T15:21:11;20.10;70.50
20498;DHT22;10407;53.238;10.448;2023-09-19T15:23:40;20.00;70.10
20498;DHT22;10407;53.238;10.448;2023-09-19T15:26:10;20.00;69.80
20498;DHT22;10407;53.238;10.448;2023-09-19T15:28:42;20.10;71.30
20498;DHT22;10407;53.238;10.448;2023-09-19T15:31:11;20.10;70.60
20498;DHT22;10407;53.238;10.448;2023-09-19T15:33:40;20.30;71.10
20498;DHT22;10407;53.238;10.448;2023-09-19T15:36:09;20.00;69.80
20498;DHT22;10407;53.238;10.448;2023-09-19T15:41:25;19.90;70.60
20498;DHT22;10407;53.238;10.448;2023-09-19T15:43:54;20.00;70.90
20498;DHT22;10407;53.238;10.448;2023-09-19T15:46:22;20.10;71.20
20498;DHT22;10407;53.238;10.448;2023-09-19T15:48:50;20.10;70.50
20498;DHT22;10407;53.238;10.448;2023-09-19T15:51:17;20.10;70.30
20498;DHT22;10407;53.238;10.448;2023-09-19T15:53:50;19.80;71.40
20498;DHT22;10407;53.238;10.448;2023-09-19T15:56:20;19.70;72.40
20498;DHT22;10407;53.238;10.448;2023-09-19T15:58:50;19.80;71.40
20498;DHT22;10407;53.238;10.448;2023-09-19T16:01:19;19.80;72.10
20498;DHT22;10407;53.238;10.448;2023-09-19T16:03:49;19.50;72.30
20498;DHT22;10407;53.238;10.448;2023-09-19T16:06:21;19.80;72.00
20498;DHT22;10407;53.238;10.448;2023-09-19T16:08:53;19.60;72.10
20498;DHT22;10407;53.238;10.448;2023-09-19T16:11:22;19.60;73.00
20498;DHT22;10407;53.238;10.448;2023-09-19T16:13:51;19.60;72.10
20498;DHT22;10407;53.238;10.448;2023-09-19T16:16:20;19.50;71.80
20498;DHT22;10407;53.238;10.448;2023-09-19T16:18:53;19.70;73.30
20498;DHT22;10407;53.238;10.448;2023-09-19T16:21:31;19.60;72.00
20498;DHT22;10407;53.238;10.448;2023-09-19T16:23:57;19.40;72.90
20498;DHT22;10407;53.238;10.448;2023-09-19T16:26:26;19.40;72.90
20498;DHT22;10407;53.238;10.448;2023-09-19T16:28:56;19.40;73.10
20498;DHT22;10407;53.238;10.448;2023-09-19T16:31:26;19.50;73.20